createdAt,value
2023-01-28T00:00:54.906Z,12.23
2023-01-28T00:03:21.432Z,11.25
2023-01-28T00:05:47.774Z,12.23
2023-01-28T00:08:14.770Z,11.40
2023-01-28T00:10:43.091Z,12.20
2023-01-28T00:13:14.487Z,12.88
2023-01-28T00:15:41.012Z,11.98
2023-01-28T00:18:07.373Z,11.93
2023-01-28T00:20:35.298Z,11.85
2023-01-28T00:23:03.092Z,12.63
2023-01-28T00:25:29.673Z,11.70
2023-01-28T00:27:56.088Z,12.00
2023-01-28T00:30:22.630Z,12.70
2023-01-28T00:32:49.179Z,11.98
2023-01-28T00:35:16.144Z,12.85
2023-01-28T00:37:45.673Z,12.82
2023-01-28T00:40:12.529Z,13.93
2023-01-28T00:42:38.900Z,12.82
2023-01-28T00:45:05.591Z,12.55
2023-01-28T00:47:31.906Z,13.85
2023-01-28T00:49:58.320Z,12.68
2023-01-28T00:52:24.629Z,14.00
2023-01-28T00:54:51.010Z,13.20
2023-01-28T00:57:17.380Z,13.68
2023-01-28T00:59:43.808Z,13.23
2023-01-28T01:02:12.978Z,14.00
2023-01-28T01:04:41.014Z,13.00
2023-01-28T01:07:07.396Z,13.75
2023-01-28T01:09:33.792Z,13.75
2023-01-28T01:12:00.162Z,13.82
2023-01-28T01:14:26.519Z,14.93
2023-01-28T01:16:52.890Z,14.20
2023-01-28T01:19:19.248Z,13.27
2023-01-28T01:21:50.298Z,13.98
2023-01-28T01:24:16.849Z,14.25
2023-01-28T01:26:43.249Z,14.95
2023-01-28T01:29:09.820Z,15.00
2023-01-28T01:31:36.379Z,14.70
2023-01-28T01:34:02.793Z,14.52
2023-01-28T01:36:29.216Z,15.18
2023-01-28T01:38:55.845Z,15.70
2023-01-28T01:41:33.367Z,13.93
2023-01-28T01:44:05.692Z,13.45
2023-01-28T01:46:39.872Z,14.05
2023-01-28T01:51:37.907Z,13.43
2023-01-28T01:54:05.352Z,12.93
2023-01-28T01:56:38.532Z,13.20
2023-01-28T01:59:08.361Z,14.80
2023-01-28T02:01:34.699Z,14.05
2023-01-28T02:04:07.174Z,13.68
2023-01-28T02:06:36.206Z,14.65
2023-01-28T02:09:03.383Z,15.02
2023-01-28T02:11:33.439Z,13.88
2023-01-28T02:14:04.250Z,14.77
2023-01-28T02:16:32.464Z,14.35
2023-01-28T02:18:58.906Z,15.10
2023-01-28T02:21:31.319Z,15.98
2023-01-28T02:24:21.837Z,16.52
2023-01-28T02:27:14.591Z,15.02
2023-01-28T02:29:55.995Z,15.50
2023-01-28T02:32:29.661Z,15.65
2023-01-28T02:35:18.361Z,15.27
2023-01-28T02:37:53.553Z,14.82
2023-01-28T02:40:25.018Z,14.93
2023-01-28T02:42:51.498Z,15.63
2023-01-28T02:45:48.602Z,14.65
2023-01-28T02:48:16.591Z,15.02
2023-01-28T02:51:04.462Z,14.70
2023-01-28T02:53:43.928Z,14.98
2023-01-28T02:56:30.766Z,15.95
2023-01-28T02:59:28.114Z,15.25
2023-01-28T03:02:16.997Z,14.85
2023-01-28T03:04:49.930Z,14.82
2023-01-28T03:07:18.757Z,14.88
2023-01-28T03:09:48.518Z,14.52
2023-01-28T03:12:46.173Z,14.32
2023-01-28T03:16:07.031Z,13.85
2023-01-28T03:19:10.230Z,13.02
2023-01-28T03:22:01.541Z,13.73
2023-01-28T03:24:51.860Z,13.15
2023-01-28T03:27:43.728Z,12.85
2023-01-28T03:30:36.528Z,12.35
2023-01-28T03:33:23.282Z,13.13
2023-01-28T03:36:08.517Z,13.05
2023-01-28T03:38:42.099Z,13.35
2023-01-28T03:41:11.395Z,13.55
2023-01-28T03:43:38.192Z,13.77
2023-01-28T03:46:06.269Z,12.50
2023-01-28T03:48:32.737Z,11.77
2023-01-28T03:51:00.381Z,12.00
2023-01-28T03:53:28.117Z,11.70
2023-01-28T03:55:56.477Z,11.52
2023-01-28T03:58:26.998Z,11.80
2023-01-28T04:00:54.370Z,12.45
2023-01-28T04:03:22.000Z,12.20
2023-01-28T04:06:06.590Z,12.05
2023-01-28T04:08:33.163Z,10.82
2023-01-28T04:11:15.373Z,11.57
2023-01-28T04:13:46.363Z,11.27
2023-01-28T04:16:15.498Z,11.25
2023-01-28T04:18:42.991Z,10.98
2023-01-28T04:21:09.869Z,10.70
2023-01-28T04:23:36.262Z,11.10
2023-01-28T04:26:04.042Z,10.70
2023-01-28T04:28:30.491Z,10.15
2023-01-28T04:30:56.981Z,10.75
2023-01-28T04:33:23.477Z,10.75
2023-01-28T04:35:49.803Z,11.75
2023-01-28T04:38:16.151Z,12.32
2023-01-28T04:40:42.511Z,11.52
2023-01-28T04:43:09.065Z,11.55
2023-01-28T04:45:35.394Z,11.73
2023-01-28T04:48:01.804Z,11.98
2023-01-28T04:50:28.169Z,12.25
2023-01-28T04:52:54.487Z,11.88
2023-01-28T04:55:20.832Z,12.10
2023-01-28T04:57:48.620Z,12.38
2023-01-28T05:00:15.298Z,12.35
2023-01-28T05:02:41.709Z,12.60
2023-01-28T05:05:08.974Z,12.35
2023-01-28T05:07:36.036Z,13.25
2023-01-28T05:10:02.676Z,12.43
2023-01-28T05:12:30.290Z,13.15
2023-01-28T05:14:56.633Z,13.02
2023-01-28T05:17:22.986Z,12.18
2023-01-28T05:19:49.409Z,12.00
2023-01-28T05:22:15.765Z,11.50
2023-01-28T05:24:42.127Z,11.73
2023-01-28T05:27:08.527Z,11.32
2023-01-28T05:29:34.915Z,11.07
2023-01-28T05:32:01.314Z,11.70
2023-01-28T05:34:27.640Z,10.50
2023-01-28T05:36:54.005Z,11.40
2023-01-28T05:39:20.363Z,11.07
2023-01-28T05:41:46.662Z,10.88
2023-01-28T05:44:13.091Z,10.98
2023-01-28T05:46:45.184Z,10.88
2023-01-28T05:49:13.411Z,10.68
2023-01-28T05:51:40.110Z,10.68
2023-01-28T05:54:07.610Z,11.10
2023-01-28T05:56:34.989Z,11.77
2023-01-28T05:59:01.311Z,11.15
2023-01-28T06:01:27.725Z,11.20
2023-01-28T06:03:54.179Z,12.00
2023-01-28T06:06:20.707Z,11.38
2023-01-28T06:08:47.137Z,11.88
2023-01-28T06:11:13.508Z,11.70
2023-01-28T06:13:41.610Z,11.75
2023-01-28T06:16:08.761Z,12.27
2023-01-28T06:18:35.301Z,11.95
2023-01-28T06:21:01.657Z,12.48
2023-01-28T06:23:28.001Z,12.43
2023-01-28T06:25:55.542Z,12.77
2023-01-28T06:28:22.408Z,12.88
2023-01-28T06:30:49.623Z,13.65
2023-01-28T06:33:16.085Z,13.70
2023-01-28T06:35:42.821Z,12.93
2023-01-28T06:38:09.461Z,13.43
2023-01-28T06:40:35.906Z,13.85
2023-01-28T06:43:02.601Z,13.45
2023-01-28T06:45:29.294Z,12.90
2023-01-28T06:47:55.626Z,14.57
2023-01-28T06:50:21.950Z,13.30
2023-01-28T06:52:48.258Z,13.45
2023-01-28T06:55:14.608Z,13.02
2023-01-28T06:57:41.698Z,13.95
2023-01-28T07:00:10.547Z,13.20
2023-01-28T07:02:37.358Z,13.60
2023-01-28T07:05:04.725Z,13.75
2023-01-28T07:07:33.474Z,14.52
2023-01-28T07:09:59.872Z,14.73
2023-01-28T07:12:26.195Z,14.20
2023-01-28T07:14:52.632Z,13.30
2023-01-28T07:17:19.150Z,14.35
2023-01-28T07:19:45.549Z,13.80
2023-01-28T07:22:11.922Z,14.60
2023-01-28T07:24:38.292Z,14.27
2023-01-28T07:27:04.664Z,14.70
2023-01-28T07:29:30.999Z,13.95
2023-01-28T07:31:57.365Z,14.38
2023-01-28T07:34:23.750Z,13.80
2023-01-28T07:36:50.172Z,15.25
2023-01-28T07:39:16.504Z,14.50
2023-01-28T07:41:43.158Z,14.15
2023-01-28T07:44:09.531Z,14.45
2023-01-28T07:46:35.881Z,14.52
2023-01-28T07:49:02.256Z,14.52
2023-01-28T07:51:28.566Z,13.88
2023-01-28T07:53:54.963Z,13.43
2023-01-28T07:56:21.282Z,14.77
2023-01-28T07:58:49.999Z,14.35
2023-01-28T08:01:16.374Z,13.95
2023-01-28T08:03:42.722Z,14.27
2023-01-28T08:06:09.151Z,14.23
2023-01-28T08:08:35.494Z,14.70
2023-01-28T08:11:11.744Z,14.60
2023-01-28T08:13:38.104Z,15.02
2023-01-28T08:16:04.958Z,14.90
2023-01-28T08:18:31.947Z,15.02
2023-01-28T08:20:59.474Z,16.02
2023-01-28T08:23:27.135Z,15.52
2023-01-28T08:25:53.972Z,15.13
2023-01-28T08:28:21.571Z,15.20
2023-01-28T08:30:48.044Z,16.23
2023-01-28T08:33:16.034Z,15.02
2023-01-28T08:35:42.571Z,16.10
2023-01-28T08:38:11.695Z,16.25
2023-01-28T08:40:38.124Z,16.70
2023-01-28T08:43:05.457Z,16.40
2023-01-28T08:45:32.168Z,16.17
2023-01-28T08:48:04.166Z,16.95
2023-01-28T08:50:36.420Z,18.67
2023-01-28T08:53:06.634Z,17.95
2023-01-28T08:55:34.098Z,18.27
2023-01-28T08:58:05.873Z,17.75
2023-01-28T09:00:33.647Z,17.25
2023-01-28T09:03:00.136Z,18.83
2023-01-28T09:05:26.759Z,19.02
2023-01-28T09:07:53.216Z,18.50
2023-01-28T09:10:23.060Z,18.20
2023-01-28T09:12:49.382Z,18.98
2023-01-28T09:15:15.854Z,18.80
2023-01-28T09:17:42.311Z,18.65
2023-01-28T09:20:09.246Z,18.85
2023-01-28T09:22:35.769Z,17.63
2023-01-28T09:25:02.135Z,17.50
2023-01-28T09:27:28.585Z,17.98
2023-01-28T09:29:54.915Z,18.35
2023-01-28T09:32:21.265Z,17.65
2023-01-28T09:34:47.677Z,16.98
2023-01-28T09:37:14.565Z,18.35
2023-01-28T09:39:41.002Z,17.38
2023-01-28T09:42:42.128Z,17.60
2023-01-28T09:45:17.118Z,16.92
2023-01-28T09:47:59.994Z,17.67
2023-01-28T09:50:39.709Z,17.50
2023-01-28T09:53:13.621Z,17.88
2023-01-28T09:55:44.480Z,18.80
2023-01-28T09:58:15.686Z,18.02
2023-01-28T10:01:12.110Z,17.55
2023-01-28T10:03:44.446Z,17.88
2023-01-28T10:06:42.834Z,17.20
2023-01-28T10:09:28.138Z,17.30
2023-01-28T10:12:04.827Z,16.55
2023-01-28T10:14:58.399Z,16.30
2023-01-28T10:17:50.251Z,17.77
2023-01-28T10:20:26.981Z,16.90
2023-01-28T10:23:52.791Z,17.08
2023-01-28T10:26:25.155Z,16.10
2023-01-28T10:28:59.834Z,16.48
2023-01-28T10:31:32.262Z,16.05
2023-01-28T10:33:59.567Z,16.80
2023-01-28T10:36:26.390Z,16.42
2023-01-28T10:38:52.831Z,16.55
2023-01-28T10:41:21.591Z,17.05
2023-01-28T10:43:49.573Z,15.77
2023-01-28T10:46:22.116Z,16.60
2023-01-28T10:48:56.545Z,16.83
2023-01-28T10:51:39.925Z,15.23
2023-01-28T10:54:24.310Z,15.52
2023-01-28T10:59:27.356Z,15.23
2023-01-28T11:01:57.350Z,16.35
2023-01-28T11:04:30.242Z,15.32
2023-01-28T11:07:01.063Z,14.88
2023-01-28T11:09:33.323Z,15.15
2023-01-28T11:12:14.309Z,14.75
2023-01-28T11:14:51.192Z,15.35
2023-01-28T11:17:19.273Z,15.32
2023-01-28T11:19:46.190Z,14.88
2023-01-28T11:22:39.571Z,14.43
2023-01-28T11:25:19.683Z,14.48
2023-01-28T11:27:51.351Z,13.82
2023-01-28T11:30:40.615Z,14.63
2023-01-28T11:33:23.893Z,14.55
2023-01-28T11:36:03.976Z,15.23
2023-01-28T11:38:30.479Z,14.32
2023-01-28T11:40:58.634Z,14.38
2023-01-28T11:43:27.976Z,14.70
2023-01-28T11:46:13.062Z,14.05
2023-01-28T11:48:50.424Z,14.10
2023-01-28T11:51:30.141Z,14.60
2023-01-28T11:54:16.241Z,13.80
2023-01-28T11:56:52.058Z,14.02
2023-01-28T11:59:33.275Z,13.73
2023-01-28T12:02:24.582Z,13.38
2023-01-28T12:05:10.028Z,14.13
2023-01-28T12:07:52.298Z,13.25
2023-01-28T12:10:27.258Z,13.30
2023-01-28T12:13:34.164Z,13.10
2023-01-28T12:16:22.010Z,13.48
2023-01-28T12:18:57.467Z,14.80
2023-01-28T12:21:49.551Z,13.95
2023-01-28T12:24:39.422Z,14.70
2023-01-28T12:27:44.218Z,14.40
2023-01-28T12:30:51.065Z,14.95
2023-01-28T12:33:23.448Z,13.52
2023-01-28T12:36:23.971Z,14.07
2023-01-28T12:39:15.120Z,13.60
2023-01-28T12:41:50.511Z,14.70
2023-01-28T12:44:35.644Z,14.50
2023-01-28T12:47:08.202Z,14.15
2023-01-28T12:49:40.030Z,14.65
2023-01-28T12:52:24.837Z,14.90
2023-01-28T12:55:16.201Z,14.55
2023-01-28T12:57:43.787Z,14.70
2023-01-28T13:00:30.021Z,14.43
2023-01-28T13:03:10.821Z,14.55
2023-01-28T13:05:46.254Z,14.93
2023-01-28T13:08:26.061Z,14.45
2023-01-28T13:10:53.803Z,15.48
2023-01-28T13:13:20.154Z,14.57
2023-01-28T13:15:47.300Z,14.18
2023-01-28T13:18:33.894Z,14.82
2023-01-28T13:21:02.211Z,14.57
2023-01-28T13:23:32.174Z,13.43
2023-01-28T13:26:29.316Z,13.95
2023-01-28T13:29:16.576Z,13.45
2023-01-28T13:31:45.608Z,14.43
2023-01-28T13:34:36.294Z,14.65
2023-01-28T13:37:27.784Z,14.85
2023-01-28T13:40:02.144Z,15.50
2023-01-28T13:42:30.442Z,15.55
2023-01-28T13:45:08.660Z,16.23
2023-01-28T13:47:37.488Z,15.70
2023-01-28T13:50:15.418Z,16.73
2023-01-28T13:52:53.582Z,16.15
2023-01-28T13:55:42.425Z,15.82
2023-01-28T13:58:46.065Z,16.55
2023-01-28T14:01:40.302Z,16.25
2023-01-28T14:04:45.201Z,16.08
2023-01-28T14:07:39.681Z,15.82
2023-01-28T14:10:24.831Z,16.05
2023-01-28T14:13:06.982Z,17.10
2023-01-28T14:16:06.287Z,17.67
2023-01-28T14:18:38.599Z,17.08
2023-01-28T14:21:18.415Z,17.10
2023-01-28T14:23:49.039Z,16.35
2023-01-28T14:26:35.812Z,16.15
2023-01-28T14:29:10.966Z,16.38
2023-01-28T14:31:39.193Z,16.77
2023-01-28T14:34:12.745Z,15.85
2023-01-28T14:36:45.269Z,17.25
2023-01-28T14:39:30.991Z,16.27
2023-01-28T14:42:01.788Z,16.75
2023-01-28T14:44:31.161Z,17.38
2023-01-28T14:47:16.220Z,17.30
2023-01-28T14:50:07.391Z,17.92
2023-01-28T14:52:55.661Z,18.83
2023-01-28T14:55:56.073Z,18.27
2023-01-28T14:58:27.641Z,17.98
2023-01-28T15:00:56.758Z,15.25
2023-01-28T15:03:25.319Z,15.35
2023-01-28T15:06:04.029Z,16.15
2023-01-28T15:08:32.227Z,15.73
2023-01-28T15:11:00.705Z,17.80
2023-01-28T15:13:30.788Z,17.08
2023-01-28T15:16:00.686Z,16.33
2023-01-28T15:18:33.943Z,16.58
2023-01-28T15:21:01.833Z,16.17
2023-01-28T15:23:33.285Z,16.48
2023-01-28T15:26:04.354Z,16.77
2023-01-28T15:28:33.046Z,17.02
2023-01-28T15:30:59.837Z,16.42
2023-01-28T15:33:26.709Z,16.50
2023-01-28T15:35:55.318Z,16.98
2023-01-28T15:38:22.649Z,17.27
2023-01-28T15:40:56.324Z,15.52
2023-01-28T15:43:26.929Z,15.77
2023-01-28T15:45:55.934Z,14.68
2023-01-28T15:48:25.296Z,15.65
2023-01-28T15:51:01.402Z,21.80
2023-01-28T15:53:42.023Z,22.30
2023-01-28T15:56:11.027Z,16.88
2023-01-28T15:58:41.585Z,15.90
2023-01-28T16:01:08.034Z,16.42
2023-01-28T16:03:39.398Z,16.00
2023-01-28T16:06:13.370Z,17.50
2023-01-28T16:08:58.739Z,17.25
2023-01-28T16:11:30.184Z,17.08
2023-01-28T16:13:57.801Z,17.08
2023-01-28T16:16:34.183Z,18.00
2023-01-28T16:19:04.099Z,17.92
2023-01-28T16:21:45.389Z,19.35
2023-01-28T16:24:27.308Z,18.65
2023-01-28T16:26:59.241Z,18.23
2023-01-28T16:29:29.267Z,18.40
2023-01-28T16:31:59.619Z,18.65
2023-01-28T16:34:27.651Z,16.98
2023-01-28T16:36:58.286Z,17.13
2023-01-28T16:39:24.695Z,17.42
2023-01-28T16:41:51.501Z,18.17
2023-01-28T16:44:17.852Z,17.85
2023-01-28T16:46:44.415Z,16.90
2023-01-28T16:49:10.809Z,17.30
2023-01-28T16:51:40.697Z,18.42
2023-01-28T16:54:07.116Z,19.65
2023-01-28T16:56:45.314Z,18.60
2023-01-28T16:59:12.614Z,18.42
2023-01-28T17:01:39.549Z,17.88
2023-01-28T17:04:11.567Z,18.58
2023-01-28T17:06:39.157Z,17.70
2023-01-28T17:09:05.855Z,18.25
2023-01-28T17:11:33.348Z,18.95
2023-01-28T17:14:00.441Z,18.63
2023-01-28T17:16:27.331Z,18.70
2023-01-28T17:18:54.422Z,19.05
2023-01-28T17:21:21.300Z,18.02
2023-01-28T17:23:47.761Z,19.92
2023-01-28T17:26:15.949Z,19.40
2023-01-28T17:28:42.927Z,20.52
2023-01-28T17:31:14.102Z,18.25
2023-01-28T17:33:41.517Z,19.25
2023-01-28T17:36:08.490Z,20.00
2023-01-28T17:38:34.930Z,19.77
2023-01-28T17:41:08.053Z,20.27
2023-01-28T17:43:34.973Z,19.60
2023-01-28T17:46:09.609Z,20.10
2023-01-28T17:48:36.011Z,22.25
2023-01-28T17:51:02.358Z,22.05
2023-01-28T17:53:28.751Z,22.65
2023-01-28T17:55:55.251Z,21.88
2023-01-28T17:58:21.605Z,21.38
2023-01-28T18:00:48.072Z,23.38
2023-01-28T18:03:15.787Z,21.40
2023-01-28T18:05:42.386Z,22.35
2023-01-28T18:08:09.432Z,21.70
2023-01-28T18:10:36.007Z,20.77
2023-01-28T18:13:02.586Z,20.48
2023-01-28T18:15:28.976Z,20.67
2023-01-28T18:17:55.282Z,22.33
2023-01-28T18:20:21.627Z,20.73
2023-01-28T18:22:47.992Z,22.35
2023-01-28T18:25:17.155Z,22.25
2023-01-28T18:27:44.557Z,21.92
2023-01-28T18:30:11.471Z,21.77
2023-01-28T18:32:37.810Z,23.45
2023-01-28T18:35:06.438Z,22.40
2023-01-28T18:37:32.907Z,23.40
2023-01-28T18:39:59.300Z,23.27
2023-01-28T18:42:25.720Z,23.85
2023-01-28T18:44:52.050Z,23.30
2023-01-28T18:47:18.514Z,23.98
2023-01-28T18:49:44.926Z,23.23
2023-01-28T18:52:11.243Z,23.02
2023-01-28T18:54:37.664Z,23.05
2023-01-28T18:57:04.978Z,23.02
2023-01-28T18:59:32.118Z,22.98
2023-01-28T19:01:58.474Z,23.55
2023-01-28T19:04:24.895Z,24.33
2023-01-28T19:06:55.468Z,24.05
2023-01-28T19:09:21.859Z,23.60
2023-01-28T19:11:50.172Z,23.60
2023-01-28T19:14:17.301Z,23.13
2023-01-28T19:16:44.267Z,24.08
2023-01-28T19:19:10.929Z,25.33
2023-01-28T19:21:37.895Z,25.33
2023-01-28T19:24:09.396Z,23.02
2023-01-28T19:26:36.835Z,24.00
2023-01-28T19:29:06.794Z,25.27
2023-01-28T19:31:33.244Z,25.58
2023-01-28T19:34:00.622Z,24.67
2023-01-28T19:36:29.295Z,23.77
2023-01-28T19:39:00.387Z,23.98
2023-01-28T19:41:28.314Z,22.90
2023-01-28T19:43:55.769Z,22.50
2023-01-28T19:46:22.403Z,22.67
2023-01-28T19:48:48.792Z,24.00
2023-01-28T19:51:16.064Z,27.10
2023-01-28T19:53:44.225Z,27.85
2023-01-28T19:56:14.197Z,28.20
2023-01-28T19:58:43.269Z,26.42
2023-01-28T20:01:12.296Z,25.00
2023-01-28T20:03:39.189Z,25.73
2023-01-28T20:06:08.227Z,24.80
2023-01-28T20:08:34.574Z,25.00
2023-01-28T20:11:17.913Z,26.70
2023-01-28T20:13:46.285Z,24.77
2023-01-28T20:16:21.510Z,25.45
2023-01-28T20:18:53.361Z,25.85
2023-01-28T20:21:20.243Z,25.65
2023-01-28T20:23:48.108Z,25.52
2023-01-28T20:26:15.130Z,25.00
2023-01-28T20:28:41.732Z,24.73
2023-01-28T20:31:09.944Z,25.35
2023-01-28T20:33:36.870Z,25.10
2023-01-28T20:36:05.504Z,25.58
2023-01-28T20:38:35.870Z,23.70
2023-01-28T20:41:10.837Z,26.48
2023-01-28T20:43:38.723Z,24.63
2023-01-28T20:46:08.225Z,26.08
2023-01-28T20:48:34.707Z,26.10
2023-01-28T20:51:16.040Z,26.38
2023-01-28T20:53:43.119Z,27.23
2023-01-28T20:56:11.117Z,27.83
2023-01-28T20:58:37.455Z,27.45
2023-01-28T21:01:04.541Z,26.55
2023-01-28T21:03:31.462Z,25.92
2023-01-28T21:05:57.833Z,26.65
2023-01-28T21:08:24.242Z,23.63
2023-01-28T21:10:50.679Z,24.00
2023-01-28T21:13:17.152Z,24.33
2023-01-28T21:15:54.847Z,23.48
2023-01-28T21:18:22.121Z,26.73
2023-01-28T21:20:48.565Z,27.63
2023-01-28T21:23:15.734Z,24.30
2023-01-28T21:25:43.065Z,25.05
2023-01-28T21:28:10.950Z,24.20
2023-01-28T21:30:38.202Z,24.83
2023-01-28T21:33:04.649Z,25.73
2023-01-28T21:35:31.189Z,26.90
2023-01-28T21:37:57.588Z,24.48
2023-01-28T21:40:23.941Z,24.15
2023-01-28T21:42:54.097Z,23.70
2023-01-28T21:45:20.709Z,23.30
2023-01-28T21:47:47.070Z,24.92
2023-01-28T21:50:13.675Z,24.58
2023-01-28T21:52:40.498Z,26.30
2023-01-28T21:55:07.214Z,26.02
2023-01-28T21:57:33.540Z,25.42
2023-01-28T22:00:00.140Z,24.17
2023-01-28T22:02:26.567Z,24.90
2023-01-28T22:04:53.028Z,24.40
2023-01-28T22:07:20.057Z,24.65
2023-01-28T22:09:47.400Z,24.88
2023-01-28T22:12:15.132Z,25.05
2023-01-28T22:14:43.278Z,26.05
2023-01-28T22:17:11.608Z,26.08
2023-01-28T22:19:39.212Z,24.83
2023-01-28T22:22:07.061Z,25.08
2023-01-28T22:24:33.515Z,24.42
2023-01-28T22:26:59.962Z,23.48
2023-01-28T22:29:26.853Z,23.95
2023-01-28T22:31:53.953Z,23.80
2023-01-28T22:34:21.137Z,25.15
2023-01-28T22:36:47.845Z,26.23
2023-01-28T22:39:15.939Z,25.52
2023-01-28T22:41:43.819Z,26.30
2023-01-28T22:44:10.765Z,26.38
2023-01-28T22:46:37.411Z,24.52
2023-01-28T22:49:03.966Z,25.25
2023-01-28T22:51:33.205Z,23.50
2023-01-28T22:53:59.716Z,25.83
2023-01-28T22:56:27.986Z,26.42
2023-01-28T22:58:55.930Z,25.83
2023-01-28T23:01:22.786Z,24.40
2023-01-28T23:03:51.380Z,25.02
2023-01-28T23:06:20.114Z,24.83
2023-01-28T23:08:47.512Z,27.65
2023-01-28T23:11:15.330Z,27.90
2023-01-28T23:14:01.721Z,25.80
2023-01-28T23:16:49.566Z,26.73
2023-01-28T23:19:35.474Z,26.45
2023-01-28T23:22:20.722Z,27.08
2023-01-28T23:24:47.105Z,26.95
2023-01-28T23:27:13.418Z,25.88
2023-01-28T23:29:39.791Z,25.85
2023-01-28T23:32:10.705Z,25.58
2023-01-28T23:34:44.371Z,26.05
2023-01-28T23:37:15.030Z,25.83
2023-01-28T23:39:42.577Z,25.30
2023-01-28T23:42:11.516Z,26.05
2023-01-28T23:44:37.827Z,25.63
2023-01-28T23:47:04.205Z,25.73
2023-01-28T23:49:30.675Z,26.33
2023-01-28T23:51:57.005Z,25.40
2023-01-28T23:54:23.323Z,26.17
2023-01-28T23:56:49.727Z,25.92
2023-01-28T23:59:16.227Z,25.75
